sensor_id;sensor_type;location;lat;lon;timestamp;P1;durP1;ratioP1;P2;durP2;ratioP2
25175;SDS011;13135;55.166;61.286;2023-07-30T00:00:36;19.10;;;12.37;;
25175;SDS011;13135;55.166;61.286;2023-07-30T00:03:21;20.90;;;12.75;;
25175;SDS011;13135;55.166;61.286;2023-07-30T00:06:05;16.58;;;12.15;;
25175;SDS011;13135;55.166;61.286;2023-07-30T00:08:50;17.45;;;12.27;;
25175;SDS011;13135;55.166;61.286;2023-07-30T00:11:34;17.90;;;11.98;;
25175;SDS011;13135;55.166;61.286;2023-07-30T00:14:20;15.65;;;10.98;;
25175;SDS011;13135;55.166;61.286;2023-07-30T00:17:05;17.25;;;10.82;;
25175;SDS011;13135;55.166;61.286;2023-07-30T00:19:49;20.27;;;10.95;;
25175;SDS011;13135;55.166;61.286;2023-07-30T00:22:34;18.15;;;12.18;;
25175;SDS011;13135;55.166;61.286;2023-07-30T00:25:19;17.23;;;11.38;;
25175;SDS011;13135;55.166;61.286;2023-07-30T00:28:00;17.35;;;11.63;;
25175;SDS011;13135;55.166;61.286;2023-07-30T00:30:45;19.55;;;12.68;;
25175;SDS011;13135;55.166;61.286;2023-07-30T00:33:29;16.95;;;12.13;;
25175;SDS011;13135;55.166;61.286;2023-07-30T00:36:13;18.00;;;11.55;;
25175;SDS011;13135;55.166;61.286;2023-07-30T00:39:00;16.50;;;11.65;;
25175;SDS011;13135;55.166;61.286;2023-07-30T00:41:45;18.70;;;10.95;;
25175;SDS011;13135;55.166;61.286;2023-07-30T00:47:36;18.48;;;11.30;;
25175;SDS011;13135;55.166;61.286;2023-07-30T00:50:20;18.63;;;11.37;;
25175;SDS011;13135;55.166;61.286;2023-07-30T00:53:07;16.90;;;11.83;;
25175;SDS011;13135;55.166;61.286;2023-07-30T00:55:53;18.23;;;12.13;;
25175;SDS011;13135;55.166;61.286;2023-07-30T00:58:37;18.65;;;12.07;;
25175;SDS011;13135;55.166;61.286;2023-07-30T01:01:23;17.33;;;12.40;;
25175;SDS011;13135;55.166;61.286;2023-07-30T01:04:06;18.77;;;12.10;;
25175;SDS011;13135;55.166;61.286;2023-07-30T01:06:51;15.07;;;11.50;;
25175;SDS011;13135;55.166;61.286;2023-07-30T01:09:36;17.77;;;11.95;;
25175;SDS011;13135;55.166;61.286;2023-07-30T01:12:21;18.17;;;12.05;;
25175;SDS011;13135;55.166;61.286;2023-07-30T01:15:02;17.27;;;12.10;;
25175;SDS011;13135;55.166;61.286;2023-07-30T01:17:50;19.00;;;12.70;;
25175;SDS011;13135;55.166;61.286;2023-07-30T01:20:35;17.83;;;12.32;;
25175;SDS011;13135;55.166;61.286;2023-07-30T01:23:16;17.27;;;12.37;;
25175;SDS011;13135;55.166;61.286;2023-07-30T01:26:07;22.23;;;13.45;;
25175;SDS011;13135;55.166;61.286;2023-07-30T01:28:56;18.85;;;12.07;;
25175;SDS011;13135;55.166;61.286;2023-07-30T01:31:41;15.48;;;12.00;;
25175;SDS011;13135;55.166;61.286;2023-07-30T01:34:27;20.92;;;12.43;;
25175;SDS011;13135;55.166;61.286;2023-07-30T01:37:12;20.98;;;12.23;;
25175;SDS011;13135;55.166;61.286;2023-07-30T01:39:56;19.17;;;12.65;;
25175;SDS011;13135;55.166;61.286;2023-07-30T01:42:48;19.42;;;13.88;;
25175;SDS011;13135;55.166;61.286;2023-07-30T01:45:35;22.50;;;14.10;;
25175;SDS011;13135;55.166;61.286;2023-07-30T01:48:20;19.27;;;12.88;;
25175;SDS011;13135;55.166;61.286;2023-07-30T01:51:03;19.12;;;12.40;;
25175;SDS011;13135;55.166;61.286;2023-07-30T01:53:51;22.60;;;13.57;;
25175;SDS011;13135;55.166;61.286;2023-07-30T01:56:36;21.75;;;14.38;;
25175;SDS011;13135;55.166;61.286;2023-07-30T01:59:18;25.62;;;14.93;;
25175;SDS011;13135;55.166;61.286;2023-07-30T02:02:03;24.60;;;14.60;;
25175;SDS011;13135;55.166;61.286;2023-07-30T02:04:53;20.92;;;13.90;;
25175;SDS011;13135;55.166;61.286;2023-07-30T02:08:02;20.92;;;13.55;;
25175;SDS011;13135;55.166;61.286;2023-07-30T02:10:55;25.33;;;14.23;;
25175;SDS011;13135;55.166;61.286;2023-07-30T02:13:41;18.08;;;12.82;;
25175;SDS011;13135;55.166;61.286;2023-07-30T02:16:26;24.20;;;13.45;;
25175;SDS011;13135;55.166;61.286;2023-07-30T02:19:09;22.45;;;13.40;;
25175;SDS011;13135;55.166;61.286;2023-07-30T02:21:53;18.77;;;12.82;;
25175;SDS011;13135;55.166;61.286;2023-07-30T02:24:40;22.33;;;12.80;;
25175;SDS011;13135;55.166;61.286;2023-07-30T02:27:25;13.40;;;10.32;;
25175;SDS011;13135;55.166;61.286;2023-07-30T02:30:18;16.37;;;11.10;;
25175;SDS011;13135;55.166;61.286;2023-07-30T02:33:03;16.85;;;11.43;;
25175;SDS011;13135;55.166;61.286;2023-07-30T02:35:50;19.48;;;11.65;;
25175;SDS011;13135;55.166;61.286;2023-07-30T02:38:36;16.58;;;11.68;;
25175;SDS011;13135;55.166;61.286;2023-07-30T02:41:20;16.83;;;10.95;;
25175;SDS011;13135;55.166;61.286;2023-07-30T02:44:04;16.27;;;11.40;;
25175;SDS011;13135;55.166;61.286;2023-07-30T02:46:49;18.17;;;11.12;;
25175;SDS011;13135;55.166;61.286;2023-07-30T02:49:33;16.02;;;10.38;;
25175;SDS011;13135;55.166;61.286;2023-07-30T02:52:17;13.48;;;10.43;;
25175;SDS011;13135;55.166;61.286;2023-07-30T02:54:59;13.85;;;10.60;;
25175;SDS011;13135;55.166;61.286;2023-07-30T02:57:42;12.15;;;9.93;;
25175;SDS011;13135;55.166;61.286;2023-07-30T03:00:27;14.68;;;10.07;;
25175;SDS011;13135;55.166;61.286;2023-07-30T03:03:14;12.60;;;9.30;;
25175;SDS011;13135;55.166;61.286;2023-07-30T03:05:58;12.37;;;9.70;;
25175;SDS011;13135;55.166;61.286;2023-07-30T03:08:43;11.80;;;8.68;;
25175;SDS011;13135;55.166;61.286;2023-07-30T03:11:27;12.63;;;9.57;;
25175;SDS011;13135;55.166;61.286;2023-07-30T03:14:13;11.88;;;8.85;;
25175;SDS011;13135;55.166;61.286;2023-07-30T03:16:58;15.77;;;9.55;;
25175;SDS011;13135;55.166;61.286;2023-07-30T03:19:43;11.05;;;8.48;;
25175;SDS011;13135;55.166;61.286;2023-07-30T03:22:29;12.30;;;8.10;;
25175;SDS011;13135;55.166;61.286;2023-07-30T03:25:20;9.52;;;6.97;;
25175;SDS011;13135;55.166;61.286;2023-07-30T03:28:06;9.60;;;7.70;;
25175;SDS011;13135;55.166;61.286;2023-07-30T03:33:56;7.55;;;6.50;;
25175;SDS011;13135;55.166;61.286;2023-07-30T03:36:41;10.77;;;7.60;;
25175;SDS011;13135;55.166;61.286;2023-07-30T03:39:26;9.88;;;7.32;;
25175;SDS011;13135;55.166;61.286;2023-07-30T03:42:10;8.02;;;6.53;;
25175;SDS011;13135;55.166;61.286;2023-07-30T03:44:55;13.62;;;8.70;;
25175;SDS011;13135;55.166;61.286;2023-07-30T03:47:40;11.80;;;8.75;;
25175;SDS011;13135;55.166;61.286;2023-07-30T03:50:32;10.35;;;8.07;;
25175;SDS011;13135;55.166;61.286;2023-07-30T03:53:19;11.95;;;7.62;;
25175;SDS011;13135;55.166;61.286;2023-07-30T03:56:03;9.00;;;7.03;;
25175;SDS011;13135;55.166;61.286;2023-07-30T03:58:48;10.65;;;6.70;;
25175;SDS011;13135;55.166;61.286;2023-07-30T04:01:32;7.03;;;5.60;;
25175;SDS011;13135;55.166;61.286;2023-07-30T04:04:18;7.07;;;5.70;;
25175;SDS011;13135;55.166;61.286;2023-07-30T04:07:02;9.13;;;6.22;;
25175;SDS011;13135;55.166;61.286;2023-07-30T04:09:47;8.07;;;6.30;;
25175;SDS011;13135;55.166;61.286;2023-07-30T04:12:32;7.35;;;6.00;;
25175;SDS011;13135;55.166;61.286;2023-07-30T04:15:14;7.72;;;5.97;;
25175;SDS011;13135;55.166;61.286;2023-07-30T04:17:59;7.93;;;6.60;;
25175;SDS011;13135;55.166;61.286;2023-07-30T04:20:55;7.82;;;6.30;;
25175;SDS011;13135;55.166;61.286;2023-07-30T04:23:40;9.02;;;6.22;;
25175;SDS011;13135;55.166;61.286;2023-07-30T04:26:25;9.95;;;6.32;;
25175;SDS011;13135;55.166;61.286;2023-07-30T04:29:09;10.85;;;6.55;;
25175;SDS011;13135;55.166;61.286;2023-07-30T04:31:56;10.32;;;6.65;;
25175;SDS011;13135;55.166;61.286;2023-07-30T04:34:43;8.55;;;6.28;;
25175;SDS011;13135;55.166;61.286;2023-07-30T04:37:28;9.63;;;6.87;;
25175;SDS011;13135;55.166;61.286;2023-07-30T04:40:12;11.45;;;6.82;;
25175;SDS011;13135;55.166;61.286;2023-07-30T04:42:56;8.38;;;6.70;;
25175;SDS011;13135;55.166;61.286;2023-07-30T04:45:41;15.02;;;7.47;;
25175;SDS011;13135;55.166;61.286;2023-07-30T04:48:25;9.00;;;7.43;;
25175;SDS011;13135;55.166;61.286;2023-07-30T04:51:09;11.05;;;7.60;;
25175;SDS011;13135;55.166;61.286;2023-07-30T04:53:54;15.95;;;8.98;;
25175;SDS011;13135;55.166;61.286;2023-07-30T04:56:39;14.40;;;9.10;;
25175;SDS011;13135;55.166;61.286;2023-07-30T04:59:26;13.50;;;8.40;;
25175;SDS011;13135;55.166;61.286;2023-07-30T05:02:12;12.98;;;8.10;;
25175;SDS011;13135;55.166;61.286;2023-07-30T05:04:56;14.05;;;8.38;;
25175;SDS011;13135;55.166;61.286;2023-07-30T05:07:40;12.60;;;8.15;;
25175;SDS011;13135;55.166;61.286;2023-07-30T05:10:22;15.43;;;9.00;;
25175;SDS011;13135;55.166;61.286;2023-07-30T05:13:09;14.48;;;9.05;;
25175;SDS011;13135;55.166;61.286;2023-07-30T05:15:54;14.25;;;8.90;;
25175;SDS011;13135;55.166;61.286;2023-07-30T05:18:38;12.50;;;8.85;;
25175;SDS011;13135;55.166;61.286;2023-07-30T05:21:25;17.73;;;8.73;;
25175;SDS011;13135;55.166;61.286;2023-07-30T05:24:10;15.20;;;9.27;;
25175;SDS011;13135;55.166;61.286;2023-07-30T05:26:55;14.50;;;9.13;;
25175;SDS011;13135;55.166;61.286;2023-07-30T05:29:40;13.70;;;8.90;;
25175;SDS011;13135;55.166;61.286;2023-07-30T05:32:25;15.63;;;9.85;;
25175;SDS011;13135;55.166;61.286;2023-07-30T05:35:09;13.45;;;9.73;;
25175;SDS011;13135;55.166;61.286;2023-07-30T05:37:53;17.80;;;9.57;;
25175;SDS011;13135;55.166;61.286;2023-07-30T05:40:38;19.98;;;10.15;;
25175;SDS011;13135;55.166;61.286;2023-07-30T05:43:23;19.77;;;10.55;;
25175;SDS011;13135;55.166;61.286;2023-07-30T05:46:08;17.50;;;10.20;;
25175;SDS011;13135;55.166;61.286;2023-07-30T05:48:50;16.27;;;10.82;;
25175;SDS011;13135;55.166;61.286;2023-07-30T05:51:36;23.15;;;11.43;;
25175;SDS011;13135;55.166;61.286;2023-07-30T05:54:21;18.90;;;11.63;;
25175;SDS011;13135;55.166;61.286;2023-07-30T05:57:05;19.17;;;11.48;;
25175;SDS011;13135;55.166;61.286;2023-07-30T05:59:50;21.05;;;10.50;;
25175;SDS011;13135;55.166;61.286;2023-07-30T06:02:34;19.48;;;11.35;;
25175;SDS011;13135;55.166;61.286;2023-07-30T06:05:20;15.82;;;9.82;;
25175;SDS011;13135;55.166;61.286;2023-07-30T06:08:04;16.23;;;9.63;;
25175;SDS011;13135;55.166;61.286;2023-07-30T06:10:49;17.23;;;10.32;;
25175;SDS011;13135;55.166;61.286;2023-07-30T06:13:34;13.82;;;9.07;;
25175;SDS011;13135;55.166;61.286;2023-07-30T06:16:19;16.00;;;9.38;;
25175;SDS011;13135;55.166;61.286;2023-07-30T06:19:06;17.08;;;9.15;;
25175;SDS011;13135;55.166;61.286;2023-07-30T06:21:49;13.85;;;8.68;;
25175;SDS011;13135;55.166;61.286;2023-07-30T06:24:34;16.85;;;10.07;;
25175;SDS011;13135;55.166;61.286;2023-07-30T06:27:21;15.05;;;10.02;;
25175;SDS011;13135;55.166;61.286;2023-07-30T06:30:06;14.10;;;8.90;;
25175;SDS011;13135;55.166;61.286;2023-07-30T06:32:51;14.07;;;8.93;;
25175;SDS011;13135;55.166;61.286;2023-07-30T06:35:35;14.93;;;8.65;;
25175;SDS011;13135;55.166;61.286;2023-07-30T06:38:20;13.48;;;8.75;;
25175;SDS011;13135;55.166;61.286;2023-07-30T06:41:05;13.43;;;9.18;;
25175;SDS011;13135;55.166;61.286;2023-07-30T06:43:52;14.48;;;9.05;;
25175;SDS011;13135;55.166;61.286;2023-07-30T06:46:39;13.00;;;8.40;;
25175;SDS011;13135;55.166;61.286;2023-07-30T06:49:23;12.55;;;9.48;;
25175;SDS011;13135;55.166;61.286;2023-07-30T06:52:08;13.15;;;8.20;;
25175;SDS011;13135;55.166;61.286;2023-07-30T06:54:53;15.85;;;9.18;;
25175;SDS011;13135;55.166;61.286;2023-07-30T06:57:38;11.80;;;8.35;;
25175;SDS011;13135;55.166;61.286;2023-07-30T07:00:23;11.32;;;8.57;;
25175;SDS011;13135;55.166;61.286;2023-07-30T07:03:07;15.82;;;8.85;;
25175;SDS011;13135;55.166;61.286;2023-07-30T07:05:54;12.25;;;8.77;;
25175;SDS011;13135;55.166;61.286;2023-07-30T07:08:41;14.77;;;9.07;;
25175;SDS011;13135;55.166;61.286;2023-07-30T07:11:28;13.00;;;8.27;;
25175;SDS011;13135;55.166;61.286;2023-07-30T07:14:12;14.05;;;8.90;;
25175;SDS011;13135;55.166;61.286;2023-07-30T07:16:56;12.80;;;8.25;;
25175;SDS011;13135;55.166;61.286;2023-07-30T07:19:41;14.10;;;8.82;;
25175;SDS011;13135;55.166;61.286;2023-07-30T07:22:26;11.60;;;8.13;;
25175;SDS011;13135;55.166;61.286;2023-07-30T07:25:13;11.23;;;8.60;;
25175;SDS011;13135;55.166;61.286;2023-07-30T07:28:00;12.60;;;8.60;;
25175;SDS011;13135;55.166;61.286;2023-07-30T07:30:44;12.15;;;8.40;;
25175;SDS011;13135;55.166;61.286;2023-07-30T07:33:34;12.60;;;8.15;;
25175;SDS011;13135;55.166;61.286;2023-07-30T07:36:19;10.80;;;7.47;;
25175;SDS011;13135;55.166;61.286;2023-07-30T07:39:04;12.65;;;7.55;;
25175;SDS011;13135;55.166;61.286;2023-07-30T07:41:48;10.38;;;7.53;;
25175;SDS011;13135;55.166;61.286;2023-07-30T07:44:33;9.40;;;7.25;;
25175;SDS011;13135;55.166;61.286;2023-07-30T07:47:20;13.52;;;7.37;;
25175;SDS011;13135;55.166;61.286;2023-07-30T07:50:05;9.63;;;7.07;;
25175;SDS011;13135;55.166;61.286;2023-07-30T07:52:49;8.95;;;7.12;;
25175;SDS011;13135;55.166;61.286;2023-07-30T07:55:35;11.07;;;7.20;;
25175;SDS011;13135;55.166;61.286;2023-07-30T07:58:16;8.70;;;6.97;;
25175;SDS011;13135;55.166;61.286;2023-07-30T08:01:03;9.30;;;7.10;;
25175;SDS011;13135;55.166;61.286;2023-07-30T08:03:48;9.93;;;7.00;;
25175;SDS011;13135;55.166;61.286;2023-07-30T08:06:35;11.02;;;7.03;;
25175;SDS011;13135;55.166;61.286;2023-07-30T08:09:21;9.77;;;6.82;;
25175;SDS011;13135;55.166;61.286;2023-07-30T08:12:10;8.90;;;7.62;;
25175;SDS011;13135;55.166;61.286;2023-07-30T08:14:55;9.15;;;6.30;;
25175;SDS011;13135;55.166;61.286;2023-07-30T08:17:38;8.05;;;6.07;;
25175;SDS011;13135;55.166;61.286;2023-07-30T08:20:22;6.55;;;5.80;;
25175;SDS011;13135;55.166;61.286;2023-07-30T08:23:13;6.87;;;6.00;;
25175;SDS011;13135;55.166;61.286;2023-07-30T08:25:59;7.60;;;6.32;;
25175;SDS011;13135;55.166;61.286;2023-07-30T08:28:44;7.93;;;5.78;;
25175;SDS011;13135;55.166;61.286;2023-07-30T08:31:29;7.62;;;5.90;;
25175;SDS011;13135;55.166;61.286;2023-07-30T08:34:15;8.15;;;6.57;;
25175;SDS011;13135;55.166;61.286;2023-07-30T08:36:59;8.05;;;6.18;;
25175;SDS011;13135;55.166;61.286;2023-07-30T08:39:43;8.90;;;6.30;;
25175;SDS011;13135;55.166;61.286;2023-07-30T08:42:30;9.90;;;6.62;;
25175;SDS011;13135;55.166;61.286;2023-07-30T08:45:12;6.87;;;6.12;;
25175;SDS011;13135;55.166;61.286;2023-07-30T08:47:57;9.85;;;7.03;;
25175;SDS011;13135;55.166;61.286;2023-07-30T08:50:42;7.10;;;6.20;;
25175;SDS011;13135;55.166;61.286;2023-07-30T08:53:26;8.23;;;6.70;;
25175;SDS011;13135;55.166;61.286;2023-07-30T08:56:12;10.10;;;6.80;;
25175;SDS011;13135;55.166;61.286;2023-07-30T08:58:57;12.70;;;6.75;;
25175;SDS011;13135;55.166;61.286;2023-07-30T09:01:42;10.25;;;6.62;;
25175;SDS011;13135;55.166;61.286;2023-07-30T09:04:27;7.80;;;6.70;;
25175;SDS011;13135;55.166;61.286;2023-07-30T09:07:12;9.18;;;7.00;;
25175;SDS011;13135;55.166;61.286;2023-07-30T09:09:57;9.40;;;6.22;;
25175;SDS011;13135;55.166;61.286;2023-07-30T09:12:41;7.65;;;6.70;;
25175;SDS011;13135;55.166;61.286;2023-07-30T09:15:29;8.45;;;6.40;;
25175;SDS011;13135;55.166;61.286;2023-07-30T09:18:16;8.38;;;7.10;;
25175;SDS011;13135;55.166;61.286;2023-07-30T09:20:58;8.25;;;6.28;;
25175;SDS011;13135;55.166;61.286;2023-07-30T09:23:44;9.30;;;6.80;;
25175;SDS011;13135;55.166;61.286;2023-07-30T09:26:30;7.87;;;6.37;;
25175;SDS011;13135;55.166;61.286;2023-07-30T09:29:17;7.30;;;6.57;;
25175;SDS011;13135;55.166;61.286;2023-07-30T09:32:02;6.75;;;6.15;;
25175;SDS011;13135;55.166;61.286;2023-07-30T09:34:47;7.75;;;6.07;;
25175;SDS011;13135;55.166;61.286;2023-07-30T09:37:37;8.18;;;6.62;;
25175;SDS011;13135;55.166;61.286;2023-07-30T09:40:21;7.22;;;6.50;;
25175;SDS011;13135;55.166;61.286;2023-07-30T09:43:08;8.40;;;6.40;;
25175;SDS011;13135;55.166;61.286;2023-07-30T09:45:52;7.60;;;6.70;;
25175;SDS011;13135;55.166;61.286;2023-07-30T09:48:36;7.72;;;6.20;;
25175;SDS011;13135;55.166;61.286;2023-07-30T09:51:23;7.28;;;6.07;;
25175;SDS011;13135;55.166;61.286;2023-07-30T09:54:51;6.85;;;6.15;;
25175;SDS011;13135;55.166;61.286;2023-07-30T09:57:36;9.32;;;6.28;;
25175;SDS011;13135;55.166;61.286;2023-07-30T10:00:18;7.00;;;6.40;;
25175;SDS011;13135;55.166;61.286;2023-07-30T10:03:04;7.80;;;6.70;;
25175;SDS011;13135;55.166;61.286;2023-07-30T10:05:49;8.05;;;6.05;;
25175;SDS011;13135;55.166;61.286;2023-07-30T10:08:35;7.95;;;6.37;;
25175;SDS011;13135;55.166;61.286;2023-07-30T10:11:19;7.10;;;6.40;;
25175;SDS011;13135;55.166;61.286;2023-07-30T10:14:03;10.88;;;6.65;;
25175;SDS011;13135;55.166;61.286;2023-07-30T10:16:52;7.72;;;5.78;;
25175;SDS011;13135;55.166;61.286;2023-07-30T10:19:36;8.68;;;6.55;;
25175;SDS011;13135;55.166;61.286;2023-07-30T10:22:23;9.10;;;6.12;;
25175;SDS011;13135;55.166;61.286;2023-07-30T10:25:10;7.60;;;6.50;;
25175;SDS011;13135;55.166;61.286;2023-07-30T10:27:55;8.35;;;6.07;;
25175;SDS011;13135;55.166;61.286;2023-07-30T10:30:42;6.87;;;6.18;;
25175;SDS011;13135;55.166;61.286;2023-07-30T10:36:34;8.18;;;5.97;;
25175;SDS011;13135;55.166;61.286;2023-07-30T10:39:17;6.50;;;5.90;;
25175;SDS011;13135;55.166;61.286;2023-07-30T10:42:02;7.07;;;5.95;;
25175;SDS011;13135;55.166;61.286;2023-07-30T10:44:49;7.25;;;6.20;;
25175;SDS011;13135;55.166;61.286;2023-07-30T10:47:34;7.60;;;6.15;;
25175;SDS011;13135;55.166;61.286;2023-07-30T10:50:21;7.05;;;5.70;;
25175;SDS011;13135;55.166;61.286;2023-07-30T10:53:03;7.60;;;6.18;;
25175;SDS011;13135;55.166;61.286;2023-07-30T10:55:50;7.40;;;5.05;;
25175;SDS011;13135;55.166;61.286;2023-07-30T10:58:35;7.65;;;5.78;;
25175;SDS011;13135;55.166;61.286;2023-07-30T11:01:23;5.93;;;5.28;;
25175;SDS011;13135;55.166;61.286;2023-07-30T11:04:10;6.70;;;5.60;;
25175;SDS011;13135;55.166;61.286;2023-07-30T11:06:56;5.68;;;5.07;;
25175;SDS011;13135;55.166;61.286;2023-07-30T11:09:41;6.22;;;5.40;;
25175;SDS011;13135;55.166;61.286;2023-07-30T11:12:27;6.18;;;5.57;;
25175;SDS011;13135;55.166;61.286;2023-07-30T11:15:09;6.82;;;5.55;;
25175;SDS011;13135;55.166;61.286;2023-07-30T11:17:54;7.07;;;5.35;;
25175;SDS011;13135;55.166;61.286;2023-07-30T11:20:39;6.40;;;5.53;;
25175;SDS011;13135;55.166;61.286;2023-07-30T11:23:23;6.05;;;5.45;;
25175;SDS011;13135;55.166;61.286;2023-07-30T11:26:13;6.28;;;5.40;;
25175;SDS011;13135;55.166;61.286;2023-07-30T11:28:57;5.85;;;5.20;;
25175;SDS011;13135;55.166;61.286;2023-07-30T11:31:43;6.47;;;5.10;;
25175;SDS011;13135;55.166;61.286;2023-07-30T11:34:28;5.50;;;5.00;;
25175;SDS011;13135;55.166;61.286;2023-07-30T11:37:15;6.28;;;5.10;;
25175;SDS011;13135;55.166;61.286;2023-07-30T11:40:00;5.57;;;5.07;;
25175;SDS011;13135;55.166;61.286;2023-07-30T11:42:45;6.07;;;4.95;;
25175;SDS011;13135;55.166;61.286;2023-07-30T11:45:32;8.18;;;5.30;;
25175;SDS011;13135;55.166;61.286;2023-07-30T11:48:17;8.85;;;5.57;;
25175;SDS011;13135;55.166;61.286;2023-07-30T11:51:03;6.65;;;4.78;;
25175;SDS011;13135;55.166;61.286;2023-07-30T11:53:49;6.47;;;5.25;;
25175;SDS011;13135;55.166;61.286;2023-07-30T11:56:34;5.95;;;5.30;;
25175;SDS011;13135;55.166;61.286;2023-07-30T11:59:21;5.47;;;4.97;;
25175;SDS011;13135;55.166;61.286;2023-07-30T12:02:06;5.90;;;5.30;;
25175;SDS011;13135;55.166;61.286;2023-07-30T12:04:53;5.47;;;4.93;;
25175;SDS011;13135;55.166;61.286;2023-07-30T12:07:39;9.73;;;5.35;;
25175;SDS011;13135;55.166;61.286;2023-07-30T12:10:23;6.47;;;5.12;;
25175;SDS011;13135;55.166;61.286;2023-07-30T12:13:10;6.28;;;5.22;;
25175;SDS011;13135;55.166;61.286;2023-07-30T12:15:52;5.43;;;4.93;;
25175;SDS011;13135;55.166;61.286;2023-07-30T12:18:37;6.43;;;5.43;;
25175;SDS011;13135;55.166;61.286;2023-07-30T12:21:24;7.60;;;5.25;;
25175;SDS011;13135;55.166;61.286;2023-07-30T12:24:08;5.90;;;5.28;;
25175;SDS011;13135;55.166;61.286;2023-07-30T12:26:50;6.18;;;5.22;;
25175;SDS011;13135;55.166;61.286;2023-07-30T12:29:35;6.57;;;5.50;;
25175;SDS011;13135;55.166;61.286;2023-07-30T12:32:20;7.45;;;5.62;;
25175;SDS011;13135;55.166;61.286;2023-07-30T12:35:07;7.82;;;5.80;;
25175;SDS011;13135;55.166;61.286;2023-07-30T12:37:52;7.65;;;6.80;;
25175;SDS011;13135;55.166;61.286;2023-07-30T12:40:37;8.68;;;6.70;;
25175;SDS011;13135;55.166;61.286;2023-07-30T12:43:23;8.45;;;6.78;;
25175;SDS011;13135;55.166;61.286;2023-07-30T12:46:08;8.07;;;6.75;;
25175;SDS011;13135;55.166;61.286;2023-07-30T12:48:52;7.50;;;6.60;;
25175;SDS011;13135;55.166;61.286;2023-07-30T12:51:37;10.90;;;7.10;;
25175;SDS011;13135;55.166;61.286;2023-07-30T12:54:24;9.98;;;6.57;;
25175;SDS011;13135;55.166;61.286;2023-07-30T12:57:09;7.20;;;6.30;;
25175;SDS011;13135;55.166;61.286;2023-07-30T12:59:55;8.45;;;6.25;;
25175;SDS011;13135;55.166;61.286;2023-07-30T13:02:42;8.68;;;6.20;;
25175;SDS011;13135;55.166;61.286;2023-07-30T13:05:29;7.65;;;6.03;;
25175;SDS011;13135;55.166;61.286;2023-07-30T13:08:16;9.77;;;6.47;;
25175;SDS011;13135;55.166;61.286;2023-07-30T13:11:01;7.53;;;6.72;;
25175;SDS011;13135;55.166;61.286;2023-07-30T13:13:45;10.80;;;7.00;;
25175;SDS011;13135;55.166;61.286;2023-07-30T13:16:30;8.77;;;7.10;;
25175;SDS011;13135;55.166;61.286;2023-07-30T13:19:15;9.25;;;6.78;;
25175;SDS011;13135;55.166;61.286;2023-07-30T13:22:00;9.55;;;6.55;;
25175;SDS011;13135;55.166;61.286;2023-07-30T13:28:17;12.70;;;6.93;;
25175;SDS011;13135;55.166;61.286;2023-07-30T13:31:02;8.77;;;7.62;;
25175;SDS011;13135;55.166;61.286;2023-07-30T13:33:43;9.35;;;7.05;;
25175;SDS011;13135;55.166;61.286;2023-07-30T13:36:27;12.70;;;7.07;;
25175;SDS011;13135;55.166;61.286;2023-07-30T13:39:12;12.68;;;7.55;;
25175;SDS011;13135;55.166;61.286;2023-07-30T13:41:57;9.60;;;7.70;;
25175;SDS011;13135;55.166;61.286;2023-07-30T13:44:42;11.38;;;7.65;;
25175;SDS011;13135;55.166;61.286;2023-07-30T13:47:28;9.40;;;7.05;;
25175;SDS011;13135;55.166;61.286;2023-07-30T13:50:13;11.05;;;7.90;;
25175;SDS011;13135;55.166;61.286;2023-07-30T13:52:58;10.82;;;7.70;;
25175;SDS011;13135;55.166;61.286;2023-07-30T13:55:45;9.88;;;7.50;;
25175;SDS011;13135;55.166;61.286;2023-07-30T13:58:30;9.90;;;8.10;;
25175;SDS011;13135;55.166;61.286;2023-07-30T14:01:15;15.25;;;8.48;;
25175;SDS011;13135;55.166;61.286;2023-07-30T14:04:02;11.75;;;7.50;;
25175;SDS011;13135;55.166;61.286;2023-07-30T14:06:48;8.68;;;6.70;;
25175;SDS011;13135;55.166;61.286;2023-07-30T14:09:33;11.80;;;6.93;;
25175;SDS011;13135;55.166;61.286;2023-07-30T14:12:18;10.10;;;7.05;;
25175;SDS011;13135;55.166;61.286;2023-07-30T14:15:03;14.85;;;7.12;;
25175;SDS011;13135;55.166;61.286;2023-07-30T14:17:49;9.27;;;7.03;;
25175;SDS011;13135;55.166;61.286;2023-07-30T14:20:34;8.60;;;6.62;;
25175;SDS011;13135;55.166;61.286;2023-07-30T14:23:18;9.23;;;6.68;;
25175;SDS011;13135;55.166;61.286;2023-07-30T14:26:02;12.02;;;6.65;;
25175;SDS011;13135;55.166;61.286;2023-07-30T14:28:49;8.90;;;6.43;;
25175;SDS011;13135;55.166;61.286;2023-07-30T14:31:34;10.27;;;8.27;;
25175;SDS011;13135;55.166;61.286;2023-07-30T14:34:18;11.93;;;7.55;;
25175;SDS011;13135;55.166;61.286;2023-07-30T14:37:05;9.02;;;6.97;;
25175;SDS011;13135;55.166;61.286;2023-07-30T14:40:00;9.35;;;6.75;;
25175;SDS011;13135;55.166;61.286;2023-07-30T14:42:44;9.75;;;6.90;;
25175;SDS011;13135;55.166;61.286;2023-07-30T14:45:29;11.23;;;7.05;;
25175;SDS011;13135;55.166;61.286;2023-07-30T14:48:15;8.57;;;6.97;;
25175;SDS011;13135;55.166;61.286;2023-07-30T14:51:01;14.55;;;6.43;;
25175;SDS011;13135;55.166;61.286;2023-07-30T14:53:45;12.52;;;6.68;;
25175;SDS011;13135;55.166;61.286;2023-07-30T14:56:32;8.05;;;7.10;;
25175;SDS011;13135;55.166;61.286;2023-07-30T14:59:17;12.73;;;6.90;;
25175;SDS011;13135;55.166;61.286;2023-07-30T15:02:02;9.68;;;6.87;;
25175;SDS011;13135;55.166;61.286;2023-07-30T15:04:46;10.68;;;6.87;;
25175;SDS011;13135;55.166;61.286;2023-07-30T15:07:33;10.73;;;7.10;;
25175;SDS011;13135;55.166;61.286;2023-07-30T15:10:20;11.70;;;7.30;;
25175;SDS011;13135;55.166;61.286;2023-07-30T15:13:05;10.70;;;7.15;;
25175;SDS011;13135;55.166;61.286;2023-07-30T15:15:52;8.25;;;6.32;;
25175;SDS011;13135;55.166;61.286;2023-07-30T15:18:35;13.75;;;6.60;;
25175;SDS011;13135;55.166;61.286;2023-07-30T15:21:22;10.18;;;6.40;;
25175;SDS011;13135;55.166;61.286;2023-07-30T15:24:07;12.57;;;6.43;;
25175;SDS011;13135;55.166;61.286;2023-07-30T15:26:52;9.40;;;6.20;;
25175;SDS011;13135;55.166;61.286;2023-07-30T15:29:38;10.48;;;6.12;;
25175;SDS011;13135;55.166;61.286;2023-07-30T15:32:22;7.78;;;5.80;;
25175;SDS011;13135;55.166;61.286;2023-07-30T15:35:09;7.53;;;5.90;;
25175;SDS011;13135;55.166;61.286;2023-07-30T15:37:56;8.65;;;6.12;;
25175;SDS011;13135;55.166;61.286;2023-07-30T15:40:43;8.45;;;5.93;;
25175;SDS011;13135;55.166;61.286;2023-07-30T15:43:29;7.32;;;5.47;;
25175;SDS011;13135;55.166;61.286;2023-07-30T15:46:16;6.78;;;5.37;;
25175;SDS011;13135;55.166;61.286;2023-07-30T15:49:00;7.30;;;5.60;;
25175;SDS011;13135;55.166;61.286;2023-07-30T15:51:47;10.15;;;6.35;;
25175;SDS011;13135;55.166;61.286;2023-07-30T15:54:34;7.18;;;5.47;;
25175;SDS011;13135;55.166;61.286;2023-07-30T15:57:21;6.82;;;5.62;;
25175;SDS011;13135;55.166;61.286;2023-07-30T16:00:05;8.65;;;5.80;;
25175;SDS011;13135;55.166;61.286;2023-07-30T16:02:53;11.68;;;5.82;;
25175;SDS011;13135;55.166;61.286;2023-07-30T16:05:45;9.10;;;5.72;;
25175;SDS011;13135;55.166;61.286;2023-07-30T16:08:25;8.65;;;5.80;;
25175;SDS011;13135;55.166;61.286;2023-07-30T16:11:09;9.18;;;5.47;;
25175;SDS011;13135;55.166;61.286;2023-07-30T16:13:53;13.18;;;5.68;;
25175;SDS011;13135;55.166;61.286;2023-07-30T16:16:39;10.95;;;6.00;;
25175;SDS011;13135;55.166;61.286;2023-07-30T16:19:24;10.07;;;5.20;;
25175;SDS011;13135;55.166;61.286;2023-07-30T16:22:09;7.15;;;5.25;;
25175;SDS011;13135;55.166;61.286;2023-07-30T16:24:54;6.53;;;5.30;;